Time;durP1;ratioP1;P1;durP2;ratioP2;P2;SDS_P1;SDS_P2;PMS_P1;PMS_P2;Temp;Humidity;BMP_temperature;BMP_pressure;BME280_temperature;BME280_humidity;BME280_pressure;Samples;Min_cycle;Max_cycle;Signal;HPM_P1;HPM_P2
2023/03/24 00:01:25;;;;;;;;;;;;;;;14.02;100.00;97256.84;5084306;28;19924;-64
2023/03/24 00:03:52;;;;;;;;;;;;;;;14.01;100.00;97249.09;5080047;28;19933;-64
2023/03/24 00:06:21;;;;;;;;;;;;;;;13.98;100.00;97250.50;5081477;28;19947;-64
2023/03/24 00:08:49;;;;;;;;;;;;;;;13.96;100.00;97243.81;5083413;28;19970;-64
2023/03/24 00:11:17;;;;;;;;;;;;;;;14.00;100.00;97236.75;5081972;28;19925;-64
2023/03/24 00:13:45;;;;;;;;;;;;;;;13.95;100.00;97245.75;5079885;28;19925;-64
2023/03/24 00:16:13;;;;;;;;;;;;;;;13.97;100.00;97242.72;5080416;28;19928;-64
2023/03/24 00:18:40;;;;;;;;;;;;;;;13.83;100.00;97237.38;5083325;28;19924;-64
2023/03/24 00:21:07;;;;;;;;;;;;;;;13.83;100.00;97226.63;5083128;28;19929;-63
2023/03/24 00:23:34;;;;;;;;;;;;;;;13.85;100.00;97232.53;5071658;28;20055;-63
2023/03/24 00:26:03;;;;;;;;;;;;;;;13.81;100.00;97228.03;5079549;28;19947;-63
2023/03/24 00:28:32;;;;;;;;;;;;;;;13.74;100.00;97228.44;5081648;28;19954;-64
2023/03/24 00:30:58;;;;;;;;;;;;;;;13.65;100.00;97224.88;5082638;28;19931;-64
2023/03/24 00:33:25;;;;;;;;;;;;;;;13.56;100.00;97225.84;5079536;28;20022;-63
2023/03/24 00:35:52;;;;;;;;;;;;;;;13.46;100.00;97216.91;5079303;28;19972;-64
2023/03/24 00:38:19;;;;;;;;;;;;;;;13.42;100.00;97213.25;5080892;28;19931;-64
2023/03/24 00:40:47;;;;;;;;;;;;;;;13.39;100.00;97202.34;5082702;28;19925;-64
2023/03/24 00:43:15;;;;;;;;;;;;;;;13.31;100.00;97205.69;5081694;28;19935;-64
2023/03/24 00:45:45;;;;;;;;;;;;;;;13.22;100.00;97213.63;5079280;28;20434;-63
2023/03/24 00:48:11;;;;;;;;;;;;;;;13.22;100.00;97213.63;5079550;28;19935;-64
2023/03/24 00:50:38;;;;;;;;;;;;;;;13.27;100.00;97208.19;5082365;28;19986;-64
2023/03/24 00:53:04;;;;;;;;;;;;;;;13.22;100.00;97199.44;5082351;28;19974;-63
2023/03/24 00:55:31;;;;;;;;;;;;;;;13.16;100.00;97192.56;5079154;28;20557;-64
2023/03/24 00:57:59;;;;;;;;;;;;;;;13.10;100.00;97191.06;5078826;28;19925;-63
2023/03/24 01:00:27;;;;;;;;;;;;;;;12.98;100.00;97189.66;5081467;28;19939;-63
2023/03/24 01:02:56;;;;;;;;;;;;;;;12.98;100.00;97184.28;5082315;28;19920;-63
2023/03/24 01:05:23;;;;;;;;;;;;;;;13.15;100.00;97185.63;5080085;28;19925;-63
2023/03/24 01:07:51;;;;;;;;;;;;;;;13.07;100.00;97178.22;5078694;28;19924;-63
2023/03/24 01:10:20;;;;;;;;;;;;;;;13.05;100.00;97177.75;5080063;28;19964;-64
2023/03/24 01:12:47;;;;;;;;;;;;;;;13.02;100.00;97173.78;5082348;28;20023;-64
2023/03/24 01:15:15;;;;;;;;;;;;;;;13.02;100.00;97173.78;5080804;28;19924;-64
2023/03/24 01:17:42;;;;;;;;;;;;;;;13.05;100.00;97180.44;5078662;28;19925;-64
2023/03/24 01:20:10;;;;;;;;;;;;;;;13.08;100.00;97180.66;5078797;28;19925;-64
2023/03/24 01:22:39;;;;;;;;;;;;;;;13.11;100.00;97174.72;5081926;28;19967;-64
2023/03/24 01:25:08;;;;;;;;;;;;;;;13.05;100.00;97175.88;5081980;28;20441;-64
2023/03/24 01:27:35;;;;;;;;;;;;;;;13.14;100.00;97187.53;5070499;28;19947;-63
2023/03/24 01:30:02;;;;;;;;;;;;;;;13.13;100.00;97185.13;5078228;28;19980;-63
2023/03/24 01:32:29;;;;;;;;;;;;;;;13.14;100.00;97182.16;5080524;28;19924;-63
2023/03/24 01:34:57;;;;;;;;;;;;;;;13.16;100.00;97185.31;5081716;28;19924;-63
2023/03/24 01:37:23;;;;;;;;;;;;;;;13.28;100.00;97182.94;5079436;28;19947;-63
2023/03/24 01:39:50;;;;;;;;;;;;;;;13.16;100.00;97185.31;5077239;28;19925;-63
2023/03/24 01:42:17;;;;;;;;;;;;;;;13.16;100.00;97193.38;5079430;28;19929;-63
2023/03/24 01:44:45;;;;;;;;;;;;;;;13.29;100.00;97189.13;5081762;28;19931;-63
2023/03/24 01:47:12;;;;;;;;;;;;;;;13.42;100.00;97199.06;5080944;28;19935;-63
2023/03/24 01:49:41;;;;;;;;;;;;;;;13.53;100.00;97187.03;5076995;28;19924;-63
2023/03/24 01:52:12;;;;;;;;;;;;;;;13.40;100.00;97171.75;5077989;28;19925;-63
2023/03/24 01:54:40;;;;;;;;;;;;;;;13.36;100.00;97181.47;5081552;28;19970;-63
2023/03/24 01:57:09;;;;;;;;;;;;;;;13.43;100.00;97179.19;5081359;28;20152;-63
2023/03/24 01:59:39;;;;;;;;;;;;;;;13.42;100.00;97174.91;5070351;28;19955;-63
2023/03/24 02:02:06;;;;;;;;;;;;;;;13.45;100.00;97190.41;5074171;28;19935;-63
2023/03/24 02:04:34;;;;;;;;;;;;;;;13.58;100.00;97194.97;5065357;28;19956;-64
2023/03/24 02:07:03;;;;;;;;;;;;;;;13.70;100.00;97197.16;5073524;28;19924;-63
2023/03/24 02:09:32;;;;;;;;;;;;;;;13.79;100.00;97195.34;5081102;28;19924;-63
2023/03/24 02:11:59;;;;;;;;;;;;;;;13.88;100.00;97186.28;5079967;28;19925;-63
2023/03/24 02:14:26;;;;;;;;;;;;;;;13.60;100.00;97179.38;5078557;28;20007;-64
2023/03/24 02:17:01;;;;;;;;;;;;;;;13.46;100.00;97162.50;5077864;28;19925;-64
2023/03/24 02:19:46;;;;;;;;;;;;;;;13.32;100.00;97159.03;5080641;28;19978;-64
2023/03/24 02:22:34;;;;;;;;;;;;;;;13.25;100.00;97169.34;5080318;28;19924;-64
2023/03/24 02:25:20;;;;;;;;;;;;;;;13.35;100.00;97169.16;5052010;28;19931;-64
2023/03/24 02:27:55;;;;;;;;;;;;;;;13.52;100.00;97193.50;5071403;28;19951;-64
2023/03/24 02:30:31;;;;;;;;;;;;;;;13.66;100.00;97204.19;5078280;28;19959;-64
2023/03/24 02:33:13;;;;;;;;;;;;;;;13.76;100.00;97215.53;5080846;28;19932;-64
2023/03/24 02:36:00;;;;;;;;;;;;;;;13.84;100.00;97214.81;5070251;28;19925;-64
2023/03/24 02:38:39;;;;;;;;;;;;;;;13.92;100.00;97213.31;5080085;28;19928;-64
2023/03/24 02:41:11;;;;;;;;;;;;;;;13.94;100.00;97211.94;5080967;28;19929;-64
2023/03/24 02:43:43;;;;;;;;;;;;;;;13.87;100.00;97205.38;5070113;28;19929;-64
2023/03/24 02:46:15;;;;;;;;;;;;;;;13.78;100.00;97207.97;5077660;28;19952;-63
2023/03/24 02:48:47;;;;;;;;;;;;;;;13.78;100.00;97191.88;5080971;28;19925;-64
2023/03/24 02:51:15;;;;;;;;;;;;;;;13.82;100.00;97202.81;5079719;28;19925;-64
2023/03/24 02:53:48;;;;;;;;;;;;;;;13.82;100.00;97206.28;5077461;28;19925;-64
2023/03/24 02:56:19;;;;;;;;;;;;;;;13.76;100.00;97204.00;5079024;28;19925;-64
2023/03/24 02:58:48;;;;;;;;;;;;;;;13.50;100.00;97192.97;5084756;28;19928;-63
2023/03/24 03:01:18;;;;;;;;;;;;;;;13.33;100.00;97168.66;5083440;28;19992;-63
2023/03/24 03:03:48;;;;;;;;;;;;;;;13.19;100.00;97173.22;5081282;28;19984;-63
2023/03/24 03:06:18;;;;;;;;;;;;;;;13.05;100.00;97167.81;5082173;28;20023;-63
2023/03/24 03:08:46;;;;;;;;;;;;;;;13.11;100.00;97160.50;5084577;28;19925;-63
2023/03/24 03:11:14;;;;;;;;;;;;;;;12.93;100.00;97160.28;5083594;28;19924;-63
2023/03/24 03:13:44;;;;;;;;;;;;;;;12.74;100.00;97156.84;5080946;28;20021;-63
2023/03/24 03:16:13;;;;;;;;;;;;;;;12.65;100.00;97150.59;5081126;28;19969;-63
2023/03/24 03:18:42;;;;;;;;;;;;;;;12.73;100.00;97157.94;5084327;28;19924;-63
2023/03/24 03:21:11;;;;;;;;;;;;;;;12.81;100.00;97140.41;5084137;28;19925;-63
2023/03/24 03:23:41;;;;;;;;;;;;;;;12.74;100.00;97146.16;5080823;28;19974;-63
2023/03/24 03:26:11;;;;;;;;;;;;;;;12.48;100.00;97123.56;5080685;28;19929;-63
2023/03/24 03:28:40;;;;;;;;;;;;;;;12.41;100.00;97118.56;5073319;28;19925;-63
2023/03/24 03:31:13;;;;;;;;;;;;;;;12.39;100.00;97126.13;5084529;28;19921;-63
2023/03/24 03:33:43;;;;;;;;;;;;;;;12.34;100.00;97131.56;5073543;28;19947;-63
2023/03/24 03:36:14;;;;;;;;;;;;;;;12.25;100.00;97132.53;5079659;28;19948;-63
2023/03/24 03:38:46;;;;;;;;;;;;;;;12.29;100.00;97120.91;5084056;28;19925;-64
2023/03/24 03:41:13;;;;;;;;;;;;;;;12.17;100.00;97122.47;5083213;28;20015;-64
2023/03/24 03:43:40;;;;;;;;;;;;;;;12.27;100.00;97122.31;5080557;28;19931;-64
2023/03/24 03:46:08;;;;;;;;;;;;;;;12.21;100.00;97110.88;5080511;28;19924;-64
2023/03/24 03:48:34;;;;;;;;;;;;;;;12.13;100.00;97108.84;5072536;28;19933;-64
2023/03/24 03:51:01;;;;;;;;;;;;;;;12.00;100.00;97108.81;5080360;28;19925;-64
2023/03/24 03:53:31;;;;;;;;;;;;;;;12.02;100.00;97112.78;5083121;28;19928;-64
2023/03/24 03:55:58;;;;;;;;;;;;;;;12.14;100.00;97105.09;5083842;28;19924;-64
2023/03/24 03:58:27;;;;;;;;;;;;;;;12.10;100.00;97095.28;5081344;28;19924;-64
2023/03/24 04:00:55;;;;;;;;;;;;;;;11.98;100.00;97092.25;5082460;28;19974;-64
2023/03/24 04:03:43;;;;;;;;;;;;;;;11.95;100.00;97090.94;5081744;28;19964;-64
2023/03/24 04:06:18;;;;;;;;;;;;;;;11.88;100.00;97074.50;5079037;28;19925;-64
2023/03/24 04:08:47;;;;;;;;;;;;;;;11.93;100.00;97071.72;5082260;28;20016;-64
2023/03/24 04:11:25;;;;;;;;;;;;;;;11.86;100.00;97077.44;5082377;28;19981;-64
2023/03/24 04:13:59;;;;;;;;;;;;;;;11.78;100.00;97075.44;5078677;28;19948;-64
2023/03/24 04:16:35;;;;;;;;;;;;;;;11.77;100.00;97062.34;5082165;28;19925;-64
2023/03/24 04:19:11;;;;;;;;;;;;;;;11.75;100.00;97081.38;5083355;28;20525;-64
2023/03/24 04:21:50;;;;;;;;;;;;;;;11.72;100.00;97070.44;5072234;28;19925;-63
2023/03/24 04:24:25;;;;;;;;;;;;;;;11.74;100.00;97063.72;5080875;28;19925;-64
2023/03/24 04:26:54;;;;;;;;;;;;;;;11.70;100.00;97062.72;5083322;28;20003;-63
2023/03/24 04:29:24;;;;;;;;;;;;;;;11.71;100.00;97066.19;5081267;28;19926;-63
2023/03/24 04:31:53;;;;;;;;;;;;;;;11.73;100.00;97056.78;5079454;28;19935;-63
2023/03/24 04:34:25;;;;;;;;;;;;;;;11.81;100.00;97066.03;5081104;28;19979;-63
2023/03/24 04:36:53;;;;;;;;;;;;;;;11.80;100.00;97067.13;5082991;28;19991;-63
2023/03/24 04:39:27;;;;;;;;;;;;;;;11.77;100.00;97071.16;5081320;28;19924;-63
2023/03/24 04:41:55;;;;;;;;;;;;;;;11.77;100.00;97063.13;5079739;28;19979;-63
2023/03/24 04:44:22;;;;;;;;;;;;;;;11.77;100.00;97063.13;5081575;28;19971;-63
2023/03/24 04:46:49;;;;;;;;;;;;;;;11.80;100.00;97067.91;5082838;28;19992;-63
2023/03/24 04:49:15;;;;;;;;;;;;;;;11.81;100.00;97064.16;5081502;28;19963;-63
2023/03/24 04:51:44;;;;;;;;;;;;;;;11.86;100.00;97065.94;5079015;28;19993;-63
2023/03/24 04:54:10;;;;;;;;;;;;;;;11.87;100.00;97057.66;5079421;28;19960;-63
2023/03/24 04:56:40;;;;;;;;;;;;;;;11.81;100.00;97058.00;5082588;28;19935;-63
2023/03/24 04:59:07;;;;;;;;;;;;;;;11.75;100.00;97059.97;5082289;28;19924;-63
2023/03/24 05:01:36;;;;;;;;;;;;;;;11.70;100.00;97051.22;5074873;28;19936;-63
2023/03/24 05:04:03;;;;;;;;;;;;;;;11.69;100.00;97061.09;5078989;28;19996;-63
2023/03/24 05:06:29;;;;;;;;;;;;;;;11.71;100.00;97058.97;5081819;28;19929;-63
2023/03/24 05:08:58;;;;;;;;;;;;;;;11.78;100.00;97070.09;5082212;28;20352;-64
2023/03/24 05:11:25;;;;;;;;;;;;;;;11.87;100.00;97078.25;5079946;28;19928;-64
2023/03/24 05:13:51;;;;;;;;;;;;;;;11.89;100.00;97090.25;5078694;28;19935;-64
2023/03/24 05:16:18;;;;;;;;;;;;;;;11.93;100.00;97078.97;5079923;28;19960;-64
2023/03/24 05:18:44;;;;;;;;;;;;;;;11.94;100.00;97088.59;5082054;28;19954;-63
2023/03/24 05:21:10;;;;;;;;;;;;;;;12.04;100.00;97086.53;5081726;28;19943;-63
2023/03/24 05:23:37;;;;;;;;;;;;;;;11.95;100.00;97087.47;5078701;28;19925;-63
2023/03/24 05:26:05;;;;;;;;;;;;;;;11.98;100.00;97094.91;5078777;28;20016;-63
2023/03/24 05:28:32;;;;;;;;;;;;;;;12.25;100.00;97136.00;5081973;28;19924;-63
2023/03/24 05:30:59;;;;;;;;;;;;;;;12.32;100.00;97095.44;5081758;28;19956;-63
2023/03/24 05:33:25;;;;;;;;;;;;;;;12.06;100.00;97096.94;5079252;28;19928;-63
2023/03/24 05:35:51;;;;;;;;;;;;;;;11.97;100.00;97098.69;5078446;28;19944;-63
2023/03/24 05:38:18;;;;;;;;;;;;;;;11.92;100.00;97094.22;5079707;28;19925;-63
2023/03/24 05:40:44;;;;;;;;;;;;;;;12.20;100.00;97116.53;5081755;28;19928;-63
2023/03/24 05:43:12;;;;;;;;;;;;;;;12.33;100.00;97107.75;5081191;28;19970;-63
2023/03/24 05:45:38;;;;;;;;;;;;;;;12.43;100.00;97116.41;5078246;28;20039;-63
2023/03/24 05:48:05;;;;;;;;;;;;;;;12.39;100.00;97110.06;5078339;28;19986;-63
2023/03/24 05:50:31;;;;;;;;;;;;;;;12.27;100.00;97117.75;5081613;28;19925;-63
2023/03/24 05:52:58;;;;;;;;;;;;;;;12.42;100.00;97119.38;5081613;28;20530;-63
2023/03/24 05:55:24;;;;;;;;;;;;;;;12.48;100.00;97125.44;5079225;28;19928;-63
2023/03/24 05:57:51;;;;;;;;;;;;;;;12.51;100.00;97112.25;5077997;28;19935;-63
2023/03/24 06:00:22;;;;;;;;;;;;;;;12.40;100.00;97118.88;5079238;28;19931;-63
2023/03/24 06:02:48;;;;;;;;;;;;;;;12.42;100.00;97108.66;5080572;28;19924;-63
2023/03/24 06:05:15;;;;;;;;;;;;;;;12.37;100.00;97106.09;5080347;28;19971;-63
2023/03/24 06:07:42;;;;;;;;;;;;;;;12.29;100.00;97106.72;5077908;28;19931;-63
2023/03/24 06:10:10;;;;;;;;;;;;;;;12.49;100.00;97114.44;5078061;28;19931;-63
2023/03/24 06:12:36;;;;;;;;;;;;;;;12.61;100.00;97113.97;5081390;28;19991;-63
2023/03/24 06:15:03;;;;;;;;;;;;;;;12.35;100.00;97110.91;5081105;28;20467;-63
2023/03/24 06:17:31;;;;;;;;;;;;;;;12.10;100.00;97108.69;5078400;28;19932;-64
2023/03/24 06:20:04;;;;;;;;;;;;;;;11.96;100.00;97089.88;5077708;28;19936;-63
2023/03/24 06:22:31;;;;;;;;;;;;;;;12.06;100.00;97091.59;5080865;28;19947;-63
2023/03/24 06:24:57;;;;;;;;;;;;;;;12.16;100.00;97092.22;5081179;28;19979;-63
2023/03/24 06:27:25;;;;;;;;;;;;;;;12.09;100.00;97088.34;5078107;28;19951;-63
2023/03/24 06:29:52;;;;;;;;;;;;;;;12.10;100.00;97093.38;5079493;28;19988;-63
2023/03/24 06:32:18;;;;;;;;;;;;;;;12.10;100.00;97100.66;5081719;28;20019;-63
2023/03/24 06:34:46;;;;;;;;;;;;;;;12.30;100.00;97101.09;5085403;28;19924;-63
2023/03/24 06:37:12;;;;;;;;;;;;;;;12.25;100.00;97108.44;5084240;28;20478;-63
2023/03/24 06:39:39;;;;;;;;;;;;;;;12.45;100.00;97102.72;5081726;28;19971;-64
2023/03/24 06:42:06;;;;;;;;;;;;;;;12.11;100.00;97103.00;5081557;28;20027;-64
2023/03/24 06:44:32;;;;;;;;;;;;;;;12.09;100.00;97093.69;5084967;28;19943;-65
2023/03/24 06:46:59;;;;;;;;;;;;;;;12.11;100.00;97100.34;5084975;28;19960;-65
2023/03/24 06:49:25;;;;;;;;;;;;;;;12.21;100.00;97113.56;5082746;28;19952;-63
2023/03/24 06:51:53;;;;;;;;;;;;;;;12.20;100.00;97113.84;5081696;28;19924;-64
2023/03/24 06:54:19;;;;;;;;;;;;;;;12.09;100.00;97107.88;5082966;28;19935;-64
2023/03/24 06:56:46;;;;;;;;;;;;;;;12.00;100.00;97098.91;5083619;28;19928;-65
2023/03/24 06:59:12;;;;;;;;;;;;;;;12.02;100.00;97112.00;5082985;28;20045;-64
2023/03/24 07:01:39;;;;;;;;;;;;;;;11.94;100.00;97093.94;5081381;28;19956;-64
2023/03/24 07:04:05;;;;;;;;;;;;;;;11.88;100.00;97096.66;5081321;28;19928;-63
2023/03/24 07:06:32;;;;;;;;;;;;;;;11.84;100.00;97086.84;5083510;28;19925;-63
2023/03/24 07:09:00;;;;;;;;;;;;;;;11.82;100.00;97095.16;5084797;28;19925;-63
2023/03/24 07:11:27;;;;;;;;;;;;;;;11.83;100.00;97077.22;5080925;28;19936;-64
2023/03/24 07:13:53;;;;;;;;;;;;;;;11.90;100.00;97067.75;5080980;28;20000;-64
2023/03/24 07:16:20;;;;;;;;;;;;;;;12.15;100.00;97073.78;5082333;28;19952;-64
2023/03/24 07:18:46;;;;;;;;;;;;;;;12.00;100.00;97082.88;5084912;28;19924;-64
2023/03/24 07:21:12;;;;;;;;;;;;;;;11.91;100.00;97073.91;5082584;28;20503;-64
2023/03/24 07:23:39;;;;;;;;;;;;;;;11.97;100.00;97071.94;5080918;28;19920;-64
2023/03/24 07:26:06;;;;;;;;;;;;;;;11.97;100.00;97064.72;5079619;28;19956;-63
2023/03/24 07:28:33;;;;;;;;;;;;;;;12.01;100.00;97059.59;5084243;28;19988;-63
2023/03/24 07:31:01;;;;;;;;;;;;;;;12.10;100.00;97076.56;5084295;28;19924;-63
2023/03/24 07:33:28;;;;;;;;;;;;;;;12.00;100.00;97068.69;5081658;28;19956;-63
2023/03/24 07:35:54;;;;;;;;;;;;;;;12.25;100.00;97093.16;5080855;28;19925;-63
2023/03/24 07:38:21;;;;;;;;;;;;;;;12.49;100.00;97095.69;5082570;28;20312;-64
2023/03/24 07:40:47;;;;;;;;;;;;;;;12.51;100.00;97098.06;5084220;28;19924;-63
2023/03/24 07:43:15;;;;;;;;;;;;;;;12.53;100.00;97102.06;5082950;28;19988;-64
2023/03/24 07:45:44;;;;;;;;;;;;;;;12.40;100.00;97102.81;5080728;28;19991;-63
2023/03/24 07:48:10;;;;;;;;;;;;;;;12.49;100.00;97109.09;5096555;28;20038;-63
2023/03/24 07:50:37;;;;;;;;;;;;;;;12.53;100.00;97111.97;5084030;28;19924;-65
2023/03/24 07:53:03;;;;;;;;;;;;;;;12.40;100.00;97108.16;5083958;28;19927;-62
2023/03/24 07:55:30;;;;;;;;;;;;;;;12.38;100.00;97126.41;5080999;28;19990;-64
2023/03/24 07:57:56;;;;;;;;;;;;;;;12.31;100.00;97124.13;5080339;28;19925;-63
2023/03/24 08:00:24;;;;;;;;;;;;;;;12.23;100.00;97123.97;5082373;28;19960;-63
2023/03/24 08:02:52;;;;;;;;;;;;;;;12.25;100.00;97127.16;5084076;28;19936;-63
2023/03/24 08:05:19;;;;;;;;;;;;;;;12.25;100.00;97127.16;5082342;28;19995;-63
2023/03/24 08:07:49;;;;;;;;;;;;;;;12.15;100.00;97133.47;5080262;28;19956;-63
2023/03/24 08:10:16;;;;;;;;;;;;;;;12.09;100.00;97126.59;5081173;28;19925;-64
2023/03/24 08:12:42;;;;;;;;;;;;;;;12.09;100.00;97128.47;5083806;28;20007;-64
2023/03/24 08:15:09;;;;;;;;;;;;;;;12.11;100.00;97132.44;5083154;28;19921;-64
2023/03/24 08:17:37;;;;;;;;;;;;;;;12.09;100.00;97133.84;5080237;28;19967;-63
2023/03/24 08:20:12;;;;;;;;;;;;;;;12.15;100.00;97140.69;5080084;28;20535;-64
2023/03/24 08:22:39;;;;;;;;;;;;;;;12.12;100.00;97157.34;5072352;28;19947;-64
2023/03/24 08:25:06;;;;;;;;;;;;;;;12.10;100.00;97151.50;5079830;28;19924;-64
2023/03/24 08:27:32;;;;;;;;;;;;;;;12.17;100.00;97150.03;5083177;28;20407;-64
2023/03/24 08:29:58;;;;;;;;;;;;;;;12.23;100.00;97159.56;5080199;28;19960;-64
2023/03/24 08:32:25;;;;;;;;;;;;;;;12.34;100.00;97154.84;5081683;28;19964;-64
2023/03/24 08:34:53;;;;;;;;;;;;;;;12.33;100.00;97169.31;5082950;28;19960;-63
2023/03/24 08:37:19;;;;;;;;;;;;;;;12.40;100.00;97167.88;5081404;28;19925;-63
2023/03/24 08:39:46;;;;;;;;;;;;;;;12.37;100.00;97165.78;5079567;28;19925;-63
2023/03/24 08:42:12;;;;;;;;;;;;;;;12.31;100.00;97166.94;5080098;28;19925;-63
2023/03/24 08:44:39;;;;;;;;;;;;;;;12.38;100.00;97163.88;5083000;28;19928;-63
2023/03/24 08:47:06;;;;;;;;;;;;;;;12.48;100.00;97166.41;5082815;28;19990;-63
2023/03/24 08:49:32;;;;;;;;;;;;;;;12.48;100.00;97166.41;5079657;28;19928;-63
2023/03/24 08:52:00;;;;;;;;;;;;;;;12.39;100.00;97152.09;5079100;28;19967;-64
2023/03/24 08:54:26;;;;;;;;;;;;;;;12.37;100.00;97156.94;5080842;28;19951;-63
2023/03/24 08:56:53;;;;;;;;;;;;;;;12.37;100.00;97156.94;5082662;28;19971;-64
2023/03/24 08:59:19;;;;;;;;;;;;;;;12.37;100.00;97159.63;5080967;28;19924;-63
2023/03/24 09:01:45;;;;;;;;;;;;;;;12.41;100.00;97161.41;5078870;28;19925;-64
2023/03/24 09:04:12;;;;;;;;;;;;;;;12.43;100.00;97169.97;5079239;28;19929;-64
2023/03/24 09:06:38;;;;;;;;;;;;;;;12.37;100.00;97167.66;5082405;28;19928;-65
2023/03/24 09:09:06;;;;;;;;;;;;;;;12.36;100.00;97182.13;5082011;28;20002;-63
2023/03/24 09:11:33;;;;;;;;;;;;;;;12.38;100.00;97196.00;5078904;28;19925;-64
2023/03/24 09:13:59;;;;;;;;;;;;;;;12.46;100.00;97192.69;5078398;28;19956;-63
2023/03/24 09:16:26;;;;;;;;;;;;;;;12.49;100.00;97192.09;5080965;28;19970;-64
2023/03/24 09:18:52;;;;;;;;;;;;;;;12.58;100.00;97193.03;5082209;28;19954;-63
2023/03/24 09:21:18;;;;;;;;;;;;;;;12.60;100.00;97188.16;5080652;28;19952;-64
2023/03/24 09:23:45;;;;;;;;;;;;;;;12.51;100.00;97189.91;5078718;28;19952;-63
2023/03/24 09:26:13;;;;;;;;;;;;;;;12.55;100.00;97190.94;5078803;28;19952;-63
2023/03/24 09:28:39;;;;;;;;;;;;;;;12.64;100.00;97188.38;5081975;28;20022;-63
2023/03/24 09:31:06;;;;;;;;;;;;;;;12.64;100.00;97183.81;5081703;28;19932;-63
2023/03/24 09:33:33;;;;;;;;;;;;;;;12.67;100.00;97185.91;5078330;28;20016;-63
2023/03/24 09:36:00;;;;;;;;;;;;;;;12.75;100.00;97190.56;5077036;28;19979;-64
2023/03/24 09:38:27;;;;;;;;;;;;;;;12.80;100.00;97184.34;5080792;28;19963;-64
2023/03/24 09:40:54;;;;;;;;;;;;;;;12.87;100.00;97182.09;5081748;28;19969;-64
2023/03/24 09:43:24;;;;;;;;;;;;;;;12.95;100.00;97186.75;5079991;28;19925;-64
2023/03/24 09:45:53;;;;;;;;;;;;;;;13.03;100.00;97188.75;5078355;28;19952;-64
2023/03/24 09:48:26;;;;;;;;;;;;;;;13.19;100.00;97189.28;5079422;28;19985;-64
2023/03/24 09:50:55;;;;;;;;;;;;;;;13.25;100.00;97188.09;5081648;28;19962;-64
2023/03/24 09:53:26;;;;;;;;;;;;;;;13.29;100.00;97189.91;5078283;28;20019;-64
2023/03/24 09:55:53;;;;;;;;;;;;;;;13.36;100.00;97190.31;5078108;28;19929;-63
2023/03/24 09:58:19;;;;;;;;;;;;;;;13.39;100.00;97194.28;5079422;28;19971;-63
2023/03/24 10:00:47;;;;;;;;;;;;;;;13.38;100.00;97198.06;5081438;28;20002;-63
2023/03/24 10:03:19;;;;;;;;;;;;;;;13.35;100.00;97198.66;5080681;28;19995;-64
2023/03/24 10:05:49;;;;;;;;;;;;;;;13.43;100.00;97198.75;5077952;28;19955;-64
2023/03/24 10:08:18;;;;;;;;;;;;;;;13.47;100.00;97197.06;5078645;28;19980;-64
2023/03/24 10:10:48;;;;;;;;;;;;;;;13.42;100.00;97207.91;5081403;28;19991;-64
2023/03/24 10:13:18;;;;;;;;;;;;;;;13.41;100.00;97208.19;5080365;28;19975;-64
2023/03/24 10:15:51;;;;;;;;;;;;;;;13.46;100.00;97205.41;5077514;28;20661;-63
2023/03/24 10:18:28;;;;;;;;;;;;;;;13.48;100.00;97213.94;5078642;28;19956;-64
2023/03/24 10:20:56;;;;;;;;;;;;;;;13.45;100.00;97215.34;5081222;28;20229;-63
2023/03/24 10:23:26;;;;;;;;;;;;;;;13.50;100.00;97217.13;5094912;28;19925;-63
2023/03/24 10:25:56;;;;;;;;;;;;;;;13.52;100.00;97220.31;5077908;28;19960;-64
2023/03/24 10:28:24;;;;;;;;;;;;;;;13.52;100.00;97220.31;5079796;28;19988;-65
2023/03/24 10:30:53;;;;;;;;;;;;;;;13.50;100.00;97222.50;5081145;28;19985;-64
2023/03/24 10:33:19;;;;;;;;;;;;;;;13.59;100.00;97212.66;5079443;28;19931;-64
2023/03/24 10:35:51;;;;;;;;;;;;;;;13.61;100.00;97231.94;5077587;28;19952;-64
2023/03/24 10:38:19;;;;;;;;;;;;;;;13.70;100.00;97221.31;5078817;28;19980;-64
2023/03/24 10:40:46;;;;;;;;;;;;;;;13.67;100.00;97224.59;5081212;28;20007;-64
2023/03/24 10:43:13;;;;;;;;;;;;;;;13.62;100.00;97230.84;5080289;28;19929;-64
2023/03/24 10:45:42;;;;;;;;;;;;;;;13.63;100.00;97218.22;5077554;28;19996;-63
2023/03/24 10:48:11;;;;;;;;;;;;;;;13.70;100.00;97221.31;5077383;28;19947;-63
2023/03/24 10:50:41;;;;;;;;;;;;;;;13.80;100.00;97218.41;5081145;28;20015;-64
2023/03/24 10:53:16;;;;;;;;;;;;;;;13.86;100.00;97209.97;5080823;28;19924;-64
2023/03/24 10:55:43;;;;;;;;;;;;;;;13.86;100.00;97201.91;5069176;28;19932;-64
2023/03/24 10:58:14;;;;;;;;;;;;;;;13.85;100.00;97200.31;5077251;28;19924;-63
2023/03/24 11:00:44;;;;;;;;;;;;;;;13.89;100.00;97181.72;5080769;28;19955;-64
2023/03/24 11:03:13;;;;;;;;;;;;;;;13.80;100.00;97172.78;5080333;28;19924;-64
2023/03/24 11:05:41;;;;;;;;;;;;;;;13.93;100.00;97145.09;5077231;28;19988;-64
2023/03/24 11:08:18;;;;;;;;;;;;;;;13.86;100.00;97126.75;5077355;28;19925;-64
2023/03/24 11:10:45;;;;;;;;;;;;;;;13.79;100.00;97129.06;5070391;28;19925;-64
2023/03/24 11:13:17;;;;;;;;;;;;;;;13.76;100.00;97129.66;5076263;28;19951;-64
2023/03/24 11:15:52;;;;;;;;;;;;;;;13.72;100.00;97133.25;5080409;28;19925;-64
2023/03/24 11:18:19;;;;;;;;;;;;;;;13.87;100.00;97131.00;5080166;28;19973;-64
2023/03/24 11:20:47;;;;;;;;;;;;;;;13.86;100.00;97128.66;5080799;28;20019;-63
2023/03/24 11:23:18;;;;;;;;;;;;;;;13.79;100.00;97128.25;5081224;28;19980;-64
2023/03/24 11:25:47;;;;;;;;;;;;;;;13.87;100.00;97133.69;5084130;28;19924;-64
2023/03/24 11:28:15;;;;;;;;;;;;;;;13.83;100.00;97134.63;5083371;28;19932;-64
2023/03/24 11:30:46;;;;;;;;;;;;;;;13.87;100.00;97139.06;5079794;28;19924;-64
2023/03/24 11:33:17;;;;;;;;;;;;;;;13.96;100.00;97145.31;5083260;28;19924;-63
2023/03/24 11:35:44;;;;;;;;;;;;;;;14.10;100.00;97147.16;5080554;28;19982;-64
2023/03/24 11:38:15;;;;;;;;;;;;;;;13.93;100.00;97145.91;5096259;28;19985;-63
2023/03/24 11:40:52;;;;;;;;;;;;;;;14.07;100.00;97151.25;5084236;28;19984;-64
2023/03/24 11:43:20;;;;;;;;;;;;;;;14.12;100.00;97177.16;5082298;28;19920;-64
2023/03/24 11:45:53;;;;;;;;;;;;;;;14.01;100.00;97168.56;5080134;28;19948;-63
2023/03/24 11:48:25;;;;;;;;;;;;;;;14.01;100.00;97163.19;5081568;28;19940;-64
2023/03/24 11:50:53;;;;;;;;;;;;;;;13.99;100.00;97174.22;5082635;28;19959;-65
2023/03/24 11:53:22;;;;;;;;;;;;;;;14.04;100.00;97168.75;5082227;28;19942;-64
2023/03/24 11:55:52;;;;;;;;;;;;;;;14.06;100.00;97166.56;5080298;28;19992;-64
2023/03/24 11:58:26;;;;;;;;;;;;;;;14.18;100.00;97157.16;5081078;28;19921;-64
2023/03/24 12:00:57;;;;;;;;;;;;;;;14.08;100.00;97164.34;5083317;28;19956;-64
2023/03/24 12:03:33;;;;;;;;;;;;;;;14.27;100.00;97149.97;5081420;28;19921;-64
2023/03/24 12:06:06;;;;;;;;;;;;;;;14.32;100.00;97152.56;5080065;28;19925;-64
2023/03/24 12:08:45;;;;;;;;;;;;;;;14.15;100.00;97134.41;5083548;28;20113;-64
2023/03/24 12:11:14;;;;;;;;;;;;;;;14.00;100.00;97135.56;5083134;28;19991;-65
2023/03/24 12:13:41;;;;;;;;;;;;;;;14.12;100.00;97143.06;5079706;28;19925;-64
2023/03/24 12:16:15;;;;;;;;;;;;;;;14.15;100.00;97134.41;5079814;28;19924;-64
2023/03/24 12:19:03;;;;;;;;;;;;;;;14.14;100.00;97114.03;5072824;28;19992;-65
2023/03/24 12:21:37;;;;;;;;;;;;;;;14.21;100.00;97122.44;5056972;28;19939;-64
2023/03/24 12:24:11;;;;;;;;;;;;;;;14.21;100.00;97127.81;5083288;28;20164;-64
2023/03/24 12:26:39;;;;;;;;;;;;;;;14.25;100.00;97126.13;5071982;28;19960;-63
2023/03/24 12:29:15;;;;;;;;;;;;;;;14.28;100.00;97116.66;5078563;28;19988;-63
2023/03/24 12:31:58;;;;;;;;;;;;;;;14.41;100.00;97097.03;5076441;28;19992;-64
2023/03/24 12:34:36;;;;;;;;;;;;;;;14.36;100.00;97102.53;5081706;28;19998;-64
2023/03/24 12:37:06;;;;;;;;;;;;;;;14.48;100.00;97097.38;5083003;28;20530;-64
2023/03/24 12:39:36;;;;;;;;;;;;;;;14.49;100.00;97093.59;5079527;28;19925;-64
2023/03/24 12:42:11;;;;;;;;;;;;;;;14.47;100.00;97096.59;5079156;28;19924;-64
2023/03/24 12:44:50;;;;;;;;;;;;;;;14.51;100.00;97077.97;5071285;28;19983;-64